sensor_id;sensor_type;location;lat;lon;timestamp;P1;durP1;ratioP1;P2;durP2;ratioP2
9842;SDS011;4960;48.736;9.108;2023-03-01T00:01:35;0.30;;;0.30;;
9842;SDS011;4960;48.736;9.108;2023-03-01T00:04:02;0.40;;;0.40;;
9842;SDS011;4960;48.736;9.108;2023-03-01T00:06:29;0.30;;;0.30;;
9842;SDS011;4960;48.736;9.108;2023-03-01T00:08:56;0.30;;;0.30;;
9842;SDS011;4960;48.736;9.108;2023-03-01T00:11:25;0.30;;;0.30;;
9842;SDS011;4960;48.736;9.108;2023-03-01T00:13:55;0.30;;;0.30;;
9842;SDS011;4960;48.736;9.108;2023-03-01T00:16:24;0.30;;;0.30;;
9842;SDS011;4960;48.736;9.108;2023-03-01T00:18:51;0.37;;;0.37;;
9842;SDS011;4960;48.736;9.108;2023-03-01T00:21:19;0.30;;;0.30;;
9842;SDS011;4960;48.736;9.108;2023-03-01T00:23:47;0.33;;;0.33;;
9842;SDS011;4960;48.736;9.108;2023-03-01T00:26:14;0.20;;;0.20;;
9842;SDS011;4960;48.736;9.108;2023-03-01T00:28:42;0.20;;;0.20;;
9842;SDS011;4960;48.736;9.108;2023-03-01T00:31:11;0.40;;;0.40;;
9842;SDS011;4960;48.736;9.108;2023-03-01T00:33:39;0.40;;;0.40;;
9842;SDS011;4960;48.736;9.108;2023-03-01T00:36:07;0.20;;;0.20;;
9842;SDS011;4960;48.736;9.108;2023-03-01T00:38:34;0.30;;;0.30;;
9842;SDS011;4960;48.736;9.108;2023-03-01T00:41:03;0.30;;;0.30;;
9842;SDS011;4960;48.736;9.108;2023-03-01T00:43:31;0.40;;;0.40;;
9842;SDS011;4960;48.736;9.108;2023-03-01T00:46:01;0.50;;;0.50;;
9842;SDS011;4960;48.736;9.108;2023-03-01T00:48:30;0.30;;;0.30;;
9842;SDS011;4960;48.736;9.108;2023-03-01T00:50:57;0.30;;;0.30;;
9842;SDS011;4960;48.736;9.108;2023-03-01T00:53:24;0.30;;;0.30;;
9842;SDS011;4960;48.736;9.108;2023-03-01T00:55:51;0.30;;;0.30;;
9842;SDS011;4960;48.736;9.108;2023-03-01T00:58:18;0.30;;;0.30;;
9842;SDS011;4960;48.736;9.108;2023-03-01T01:00:45;0.50;;;0.50;;
9842;SDS011;4960;48.736;9.108;2023-03-01T01:03:12;0.33;;;0.33;;
9842;SDS011;4960;48.736;9.108;2023-03-01T01:05:41;0.30;;;0.30;;
9842;SDS011;4960;48.736;9.108;2023-03-01T01:08:08;0.30;;;0.30;;
9842;SDS011;4960;48.736;9.108;2023-03-01T01:10:35;0.30;;;0.30;;
9842;SDS011;4960;48.736;9.108;2023-03-01T01:13:02;0.30;;;0.30;;
9842;SDS011;4960;48.736;9.108;2023-03-01T01:15:32;0.30;;;0.30;;
9842;SDS011;4960;48.736;9.108;2023-03-01T01:18:00;0.40;;;0.40;;
9842;SDS011;4960;48.736;9.108;2023-03-01T01:20:27;0.30;;;0.30;;
9842;SDS011;4960;48.736;9.108;2023-03-01T01:22:55;0.40;;;0.40;;
9842;SDS011;4960;48.736;9.108;2023-03-01T01:25:23;0.37;;;0.37;;
9842;SDS011;4960;48.736;9.108;2023-03-01T01:27:50;0.30;;;0.30;;
9842;SDS011;4960;48.736;9.108;2023-03-01T01:30:17;0.40;;;0.40;;
9842;SDS011;4960;48.736;9.108;2023-03-01T01:32:45;0.30;;;0.30;;
9842;SDS011;4960;48.736;9.108;2023-03-01T01:35:12;0.40;;;0.40;;
9842;SDS011;4960;48.736;9.108;2023-03-01T01:37:39;0.30;;;0.30;;
9842;SDS011;4960;48.736;9.108;2023-03-01T01:40:08;0.40;;;0.40;;
9842;SDS011;4960;48.736;9.108;2023-03-01T01:42:36;0.30;;;0.30;;
9842;SDS011;4960;48.736;9.108;2023-03-01T01:47:49;0.40;;;0.40;;
9842;SDS011;4960;48.736;9.108;2023-03-01T01:50:17;0.30;;;0.30;;
9842;SDS011;4960;48.736;9.108;2023-03-01T01:52:45;0.50;;;0.50;;
9842;SDS011;4960;48.736;9.108;2023-03-01T01:55:17;0.40;;;0.40;;
9842;SDS011;4960;48.736;9.108;2023-03-01T01:57:47;0.30;;;0.30;;
9842;SDS011;4960;48.736;9.108;2023-03-01T02:00:16;0.40;;;0.40;;
9842;SDS011;4960;48.736;9.108;2023-03-01T02:02:44;0.50;;;0.50;;
9842;SDS011;4960;48.736;9.108;2023-03-01T02:05:13;0.30;;;0.30;;
9842;SDS011;4960;48.736;9.108;2023-03-01T02:07:41;0.37;;;0.37;;
9842;SDS011;4960;48.736;9.108;2023-03-01T02:10:09;0.30;;;0.30;;
9842;SDS011;4960;48.736;9.108;2023-03-01T02:12:38;0.30;;;0.30;;
9842;SDS011;4960;48.736;9.108;2023-03-01T02:15:05;0.30;;;0.30;;
9842;SDS011;4960;48.736;9.108;2023-03-01T02:17:33;0.30;;;0.30;;
9842;SDS011;4960;48.736;9.108;2023-03-01T02:20:04;0.30;;;0.30;;
9842;SDS011;4960;48.736;9.108;2023-03-01T02:22:34;0.40;;;0.40;;
9842;SDS011;4960;48.736;9.108;2023-03-01T02:25:05;0.30;;;0.30;;
9842;SDS011;4960;48.736;9.108;2023-03-01T02:27:38;0.30;;;0.30;;
9842;SDS011;4960;48.736;9.108;2023-03-01T02:30:09;0.33;;;0.33;;
9842;SDS011;4960;48.736;9.108;2023-03-01T02:32:38;0.50;;;0.50;;
9842;SDS011;4960;48.736;9.108;2023-03-01T02:35:06;0.30;;;0.30;;
9842;SDS011;4960;48.736;9.108;2023-03-01T02:37:34;0.30;;;0.30;;
9842;SDS011;4960;48.736;9.108;2023-03-01T02:40:04;0.37;;;0.37;;
9842;SDS011;4960;48.736;9.108;2023-03-01T02:42:36;0.30;;;0.30;;
9842;SDS011;4960;48.736;9.108;2023-03-01T02:45:10;0.37;;;0.37;;
9842;SDS011;4960;48.736;9.108;2023-03-01T02:47:37;0.30;;;0.30;;
9842;SDS011;4960;48.736;9.108;2023-03-01T02:50:09;0.30;;;0.30;;
9842;SDS011;4960;48.736;9.108;2023-03-01T02:52:41;0.30;;;0.30;;
9842;SDS011;4960;48.736;9.108;2023-03-01T02:55:13;0.30;;;0.30;;
9842;SDS011;4960;48.736;9.108;2023-03-01T02:57:42;0.40;;;0.40;;
9842;SDS011;4960;48.736;9.108;2023-03-01T03:00:12;0.30;;;0.30;;
9842;SDS011;4960;48.736;9.108;2023-03-01T03:02:44;0.30;;;0.30;;
9842;SDS011;4960;48.736;9.108;2023-03-01T03:05:12;0.40;;;0.40;;
9842;SDS011;4960;48.736;9.108;2023-03-01T03:07:43;0.37;;;0.37;;
9842;SDS011;4960;48.736;9.108;2023-03-01T03:10:12;0.33;;;0.33;;
9842;SDS011;4960;48.736;9.108;2023-03-01T03:12:39;0.40;;;0.40;;
9842;SDS011;4960;48.736;9.108;2023-03-01T03:15:07;0.40;;;0.40;;
9842;SDS011;4960;48.736;9.108;2023-03-01T03:17:39;0.40;;;0.40;;
9842;SDS011;4960;48.736;9.108;2023-03-01T03:20:07;0.37;;;0.37;;
9842;SDS011;4960;48.736;9.108;2023-03-01T03:22:36;0.30;;;0.30;;
9842;SDS011;4960;48.736;9.108;2023-03-01T03:25:04;0.30;;;0.30;;
9842;SDS011;4960;48.736;9.108;2023-03-01T03:27:35;0.37;;;0.37;;
9842;SDS011;4960;48.736;9.108;2023-03-01T03:30:03;0.30;;;0.30;;
9842;SDS011;4960;48.736;9.108;2023-03-01T03:32:33;0.30;;;0.30;;
9842;SDS011;4960;48.736;9.108;2023-03-01T03:35:02;0.40;;;0.40;;
9842;SDS011;4960;48.736;9.108;2023-03-01T03:37:34;0.30;;;0.30;;
9842;SDS011;4960;48.736;9.108;2023-03-01T03:40:19;0.40;;;0.40;;
9842;SDS011;4960;48.736;9.108;2023-03-01T03:42:46;0.40;;;0.40;;
9842;SDS011;4960;48.736;9.108;2023-03-01T03:45:13;0.30;;;0.30;;
9842;SDS011;4960;48.736;9.108;2023-03-01T03:47:41;0.30;;;0.30;;
9842;SDS011;4960;48.736;9.108;2023-03-01T03:50:10;0.30;;;0.30;;
9842;SDS011;4960;48.736;9.108;2023-03-01T03:52:37;0.40;;;0.40;;
9842;SDS011;4960;48.736;9.108;2023-03-01T03:55:05;0.40;;;0.40;;
9842;SDS011;4960;48.736;9.108;2023-03-01T03:57:35;0.37;;;0.37;;
9842;SDS011;4960;48.736;9.108;2023-03-01T04:00:03;0.30;;;0.30;;
9842;SDS011;4960;48.736;9.108;2023-03-01T04:02:30;0.23;;;0.23;;
9842;SDS011;4960;48.736;9.108;2023-03-01T04:04:58;0.30;;;0.30;;
9842;SDS011;4960;48.736;9.108;2023-03-01T04:07:26;0.30;;;0.30;;
9842;SDS011;4960;48.736;9.108;2023-03-01T04:09:53;0.30;;;0.30;;
9842;SDS011;4960;48.736;9.108;2023-03-01T04:12:20;0.37;;;0.37;;
9842;SDS011;4960;48.736;9.108;2023-03-01T04:14:48;0.40;;;0.40;;
9842;SDS011;4960;48.736;9.108;2023-03-01T04:17:15;0.30;;;0.30;;
9842;SDS011;4960;48.736;9.108;2023-03-01T04:19:43;0.30;;;0.30;;
9842;SDS011;4960;48.736;9.108;2023-03-01T04:22:13;0.33;;;0.33;;
9842;SDS011;4960;48.736;9.108;2023-03-01T04:24:44;0.30;;;0.30;;
9842;SDS011;4960;48.736;9.108;2023-03-01T04:27:12;0.30;;;0.30;;
9842;SDS011;4960;48.736;9.108;2023-03-01T04:29:39;0.40;;;0.40;;
9842;SDS011;4960;48.736;9.108;2023-03-01T04:32:06;0.30;;;0.30;;
9842;SDS011;4960;48.736;9.108;2023-03-01T04:34:33;0.40;;;0.40;;
9842;SDS011;4960;48.736;9.108;2023-03-01T04:37:00;0.40;;;0.40;;
9842;SDS011;4960;48.736;9.108;2023-03-01T04:39:27;0.40;;;0.40;;
9842;SDS011;4960;48.736;9.108;2023-03-01T04:41:56;0.30;;;0.30;;
9842;SDS011;4960;48.736;9.108;2023-03-01T04:44:23;0.30;;;0.30;;
9842;SDS011;4960;48.736;9.108;2023-03-01T04:46:50;0.40;;;0.40;;
9842;SDS011;4960;48.736;9.108;2023-03-01T04:49:17;0.40;;;0.40;;
9842;SDS011;4960;48.736;9.108;2023-03-01T04:51:45;0.37;;;0.37;;
9842;SDS011;4960;48.736;9.108;2023-03-01T04:54:12;0.30;;;0.30;;
9842;SDS011;4960;48.736;9.108;2023-03-01T04:56:39;0.30;;;0.30;;
9842;SDS011;4960;48.736;9.108;2023-03-01T04:59:07;0.30;;;0.30;;
9842;SDS011;4960;48.736;9.108;2023-03-01T05:01:35;0.30;;;0.30;;
9842;SDS011;4960;48.736;9.108;2023-03-01T05:04:02;0.30;;;0.30;;
9842;SDS011;4960;48.736;9.108;2023-03-01T05:06:30;0.43;;;0.43;;
9842;SDS011;4960;48.736;9.108;2023-03-01T05:08:57;0.43;;;0.43;;
9842;SDS011;4960;48.736;9.108;2023-03-01T05:11:25;0.30;;;0.30;;
9842;SDS011;4960;48.736;9.108;2023-03-01T05:13:53;0.40;;;0.40;;
9842;SDS011;4960;48.736;9.108;2023-03-01T05:16:21;0.30;;;0.30;;
9842;SDS011;4960;48.736;9.108;2023-03-01T05:18:48;0.47;;;0.47;;
9842;SDS011;4960;48.736;9.108;2023-03-01T05:21:16;0.33;;;0.33;;
9842;SDS011;4960;48.736;9.108;2023-03-01T05:23:43;0.30;;;0.30;;
9842;SDS011;4960;48.736;9.108;2023-03-01T05:26:12;0.30;;;0.30;;
9842;SDS011;4960;48.736;9.108;2023-03-01T05:28:39;0.30;;;0.30;;
9842;SDS011;4960;48.736;9.108;2023-03-01T05:31:06;0.40;;;0.40;;
9842;SDS011;4960;48.736;9.108;2023-03-01T05:33:36;0.40;;;0.40;;
9842;SDS011;4960;48.736;9.108;2023-03-01T05:36:04;0.40;;;0.40;;
9842;SDS011;4960;48.736;9.108;2023-03-01T05:38:32;0.30;;;0.30;;
9842;SDS011;4960;48.736;9.108;2023-03-01T05:40:59;0.30;;;0.30;;
9842;SDS011;4960;48.736;9.108;2023-03-01T05:43:29;0.40;;;0.40;;
9842;SDS011;4960;48.736;9.108;2023-03-01T05:45:57;0.30;;;0.30;;
9842;SDS011;4960;48.736;9.108;2023-03-01T05:48:25;0.30;;;0.30;;
9842;SDS011;4960;48.736;9.108;2023-03-01T05:50:53;0.40;;;0.40;;
9842;SDS011;4960;48.736;9.108;2023-03-01T05:53:20;0.40;;;0.40;;
9842;SDS011;4960;48.736;9.108;2023-03-01T05:55:47;0.30;;;0.30;;
9842;SDS011;4960;48.736;9.108;2023-03-01T05:58:16;0.30;;;0.30;;
9842;SDS011;4960;48.736;9.108;2023-03-01T06:00:44;0.30;;;0.30;;
9842;SDS011;4960;48.736;9.108;2023-03-01T06:03:12;0.30;;;0.30;;
9842;SDS011;4960;48.736;9.108;2023-03-01T06:05:39;0.40;;;0.40;;
9842;SDS011;4960;48.736;9.108;2023-03-01T06:08:08;0.30;;;0.30;;
9842;SDS011;4960;48.736;9.108;2023-03-01T06:10:36;0.30;;;0.30;;
9842;SDS011;4960;48.736;9.108;2023-03-01T06:13:04;0.40;;;0.40;;
9842;SDS011;4960;48.736;9.108;2023-03-01T06:15:31;0.30;;;0.30;;
9842;SDS011;4960;48.736;9.108;2023-03-01T06:17:58;0.30;;;0.30;;
9842;SDS011;4960;48.736;9.108;2023-03-01T06:20:26;0.30;;;0.30;;
9842;SDS011;4960;48.736;9.108;2023-03-01T06:22:53;0.30;;;0.30;;
9842;SDS011;4960;48.736;9.108;2023-03-01T06:25:22;0.40;;;0.40;;
9842;SDS011;4960;48.736;9.108;2023-03-01T06:27:50;0.30;;;0.30;;
9842;SDS011;4960;48.736;9.108;2023-03-01T06:30:19;0.30;;;0.30;;
9842;SDS011;4960;48.736;9.108;2023-03-01T06:32:46;0.40;;;0.40;;
9842;SDS011;4960;48.736;9.108;2023-03-01T06:35:14;0.37;;;0.37;;
9842;SDS011;4960;48.736;9.108;2023-03-01T06:37:42;0.40;;;0.40;;
9842;SDS011;4960;48.736;9.108;2023-03-01T06:40:10;0.30;;;0.30;;
9842;SDS011;4960;48.736;9.108;2023-03-01T06:42:40;0.37;;;0.37;;
9842;SDS011;4960;48.736;9.108;2023-03-01T06:45:08;0.40;;;0.40;;
9842;SDS011;4960;48.736;9.108;2023-03-01T06:47:35;0.40;;;0.40;;
9842;SDS011;4960;48.736;9.108;2023-03-01T06:50:03;0.37;;;0.37;;
9842;SDS011;4960;48.736;9.108;2023-03-01T06:52:30;0.30;;;0.30;;
9842;SDS011;4960;48.736;9.108;2023-03-01T06:54:57;0.30;;;0.30;;
9842;SDS011;4960;48.736;9.108;2023-03-01T06:57:24;0.30;;;0.30;;
9842;SDS011;4960;48.736;9.108;2023-03-01T06:59:53;0.30;;;0.30;;
9842;SDS011;4960;48.736;9.108;2023-03-01T07:02:20;0.30;;;0.30;;
9842;SDS011;4960;48.736;9.108;2023-03-01T07:04:48;0.30;;;0.30;;
9842;SDS011;4960;48.736;9.108;2023-03-01T07:07:15;0.30;;;0.30;;
9842;SDS011;4960;48.736;9.108;2023-03-01T07:09:43;0.37;;;0.37;;
9842;SDS011;4960;48.736;9.108;2023-03-01T07:12:10;0.30;;;0.30;;
9842;SDS011;4960;48.736;9.108;2023-03-01T07:14:37;0.40;;;0.40;;
9842;SDS011;4960;48.736;9.108;2023-03-01T07:17:06;0.40;;;0.40;;
9842;SDS011;4960;48.736;9.108;2023-03-01T07:19:33;0.30;;;0.30;;
9842;SDS011;4960;48.736;9.108;2023-03-01T07:22:00;0.30;;;0.30;;
9842;SDS011;4960;48.736;9.108;2023-03-01T07:24:29;0.43;;;0.43;;
9842;SDS011;4960;48.736;9.108;2023-03-01T07:26:56;0.30;;;0.30;;
9842;SDS011;4960;48.736;9.108;2023-03-01T07:29:23;0.30;;;0.30;;
9842;SDS011;4960;48.736;9.108;2023-03-01T07:31:50;0.30;;;0.30;;
9842;SDS011;4960;48.736;9.108;2023-03-01T07:34:19;0.30;;;0.30;;
9842;SDS011;4960;48.736;9.108;2023-03-01T07:36:46;0.23;;;0.23;;
9842;SDS011;4960;48.736;9.108;2023-03-01T07:39:13;0.40;;;0.40;;
9842;SDS011;4960;48.736;9.108;2023-03-01T07:41:40;0.30;;;0.30;;
9842;SDS011;4960;48.736;9.108;2023-03-01T07:44:07;0.37;;;0.37;;
9842;SDS011;4960;48.736;9.108;2023-03-01T07:46:34;0.30;;;0.30;;
9842;SDS011;4960;48.736;9.108;2023-03-01T07:49:02;0.30;;;0.30;;
9842;SDS011;4960;48.736;9.108;2023-03-01T07:51:31;0.30;;;0.30;;
9842;SDS011;4960;48.736;9.108;2023-03-01T07:53:59;0.27;;;0.27;;
9842;SDS011;4960;48.736;9.108;2023-03-01T07:56:26;0.20;;;0.20;;
9842;SDS011;4960;48.736;9.108;2023-03-01T07:58:53;0.20;;;0.20;;
9842;SDS011;4960;48.736;9.108;2023-03-01T08:01:20;0.30;;;0.30;;
9842;SDS011;4960;48.736;9.108;2023-03-01T08:03:48;0.20;;;0.20;;
9842;SDS011;4960;48.736;9.108;2023-03-01T08:06:16;0.20;;;0.20;;
9842;SDS011;4960;48.736;9.108;2023-03-01T08:08:45;0.20;;;0.20;;
9842;SDS011;4960;48.736;9.108;2023-03-01T08:11:12;0.20;;;0.20;;
9842;SDS011;4960;48.736;9.108;2023-03-01T08:13:40;0.20;;;0.20;;
9842;SDS011;4960;48.736;9.108;2023-03-01T08:16:07;0.20;;;0.20;;
9842;SDS011;4960;48.736;9.108;2023-03-01T08:18:35;0.20;;;0.20;;
9842;SDS011;4960;48.736;9.108;2023-03-01T08:21:03;0.20;;;0.20;;
9842;SDS011;4960;48.736;9.108;2023-03-01T08:23:30;0.20;;;0.20;;
9842;SDS011;4960;48.736;9.108;2023-03-01T08:26:05;0.20;;;0.20;;
9842;SDS011;4960;48.736;9.108;2023-03-01T08:28:33;0.20;;;0.20;;
9842;SDS011;4960;48.736;9.108;2023-03-01T08:31:00;0.20;;;0.20;;
9842;SDS011;4960;48.736;9.108;2023-03-01T08:33:27;0.20;;;0.20;;
9842;SDS011;4960;48.736;9.108;2023-03-01T08:36:01;0.10;;;0.10;;
9842;SDS011;4960;48.736;9.108;2023-03-01T08:38:28;0.20;;;0.20;;
9842;SDS011;4960;48.736;9.108;2023-03-01T08:40:58;0.10;;;0.10;;
9842;SDS011;4960;48.736;9.108;2023-03-01T08:43:27;0.20;;;0.20;;
9842;SDS011;4960;48.736;9.108;2023-03-01T08:45:54;0.10;;;0.10;;
9842;SDS011;4960;48.736;9.108;2023-03-01T08:48:22;0.20;;;0.20;;
9842;SDS011;4960;48.736;9.108;2023-03-01T08:50:49;0.10;;;0.10;;
9842;SDS011;4960;48.736;9.108;2023-03-01T08:53:16;0.20;;;0.20;;
9842;SDS011;4960;48.736;9.108;2023-03-01T08:55:43;0.10;;;0.10;;
9842;SDS011;4960;48.736;9.108;2023-03-01T08:58:10;0.20;;;0.20;;
9842;SDS011;4960;48.736;9.108;2023-03-01T09:00:39;0.10;;;0.10;;
9842;SDS011;4960;48.736;9.108;2023-03-01T09:03:06;0.20;;;0.20;;
9842;SDS011;4960;48.736;9.108;2023-03-01T09:05:34;0.20;;;0.20;;
9842;SDS011;4960;48.736;9.108;2023-03-01T09:08:01;0.20;;;0.20;;
9842;SDS011;4960;48.736;9.108;2023-03-01T09:10:29;0.10;;;0.10;;
9842;SDS011;4960;48.736;9.108;2023-03-01T09:12:56;0.17;;;0.17;;
9842;SDS011;4960;48.736;9.108;2023-03-01T09:15:23;0.20;;;0.20;;
9842;SDS011;4960;48.736;9.108;2023-03-01T09:17:52;0.20;;;0.20;;
9842;SDS011;4960;48.736;9.108;2023-03-01T09:20:19;0.10;;;0.10;;
9842;SDS011;4960;48.736;9.108;2023-03-01T09:22:46;0.10;;;0.10;;
9842;SDS011;4960;48.736;9.108;2023-03-01T09:25:13;0.20;;;0.20;;
9842;SDS011;4960;48.736;9.108;2023-03-01T09:27:40;0.20;;;0.20;;
9842;SDS011;4960;48.736;9.108;2023-03-01T09:30:08;0.10;;;0.10;;
9842;SDS011;4960;48.736;9.108;2023-03-01T09:32:35;0.20;;;0.20;;
9842;SDS011;4960;48.736;9.108;2023-03-01T09:35:08;0.10;;;0.10;;
9842;SDS011;4960;48.736;9.108;2023-03-01T09:37:36;0.10;;;0.10;;
9842;SDS011;4960;48.736;9.108;2023-03-01T09:40:05;0.10;;;0.10;;
9842;SDS011;4960;48.736;9.108;2023-03-01T09:42:34;0.20;;;0.20;;
9842;SDS011;4960;48.736;9.108;2023-03-01T09:45:02;0.10;;;0.10;;
9842;SDS011;4960;48.736;9.108;2023-03-01T09:47:30;0.13;;;0.13;;
9842;SDS011;4960;48.736;9.108;2023-03-01T09:50:00;0.20;;;0.20;;
9842;SDS011;4960;48.736;9.108;2023-03-01T09:52:30;0.10;;;0.10;;
9842;SDS011;4960;48.736;9.108;2023-03-01T09:55:00;0.10;;;0.10;;
9842;SDS011;4960;48.736;9.108;2023-03-01T09:57:33;0.10;;;0.10;;
9842;SDS011;4960;48.736;9.108;2023-03-01T10:02:50;0.10;;;0.10;;
9842;SDS011;4960;48.736;9.108;2023-03-01T10:05:31;0.10;;;0.10;;
9842;SDS011;4960;48.736;9.108;2023-03-01T10:08:06;0.10;;;0.10;;
9842;SDS011;4960;48.736;9.108;2023-03-01T10:10:43;0.10;;;0.10;;
9842;SDS011;4960;48.736;9.108;2023-03-01T10:13:10;0.10;;;0.10;;
9842;SDS011;4960;48.736;9.108;2023-03-01T10:15:43;0.10;;;0.10;;
9842;SDS011;4960;48.736;9.108;2023-03-01T10:18:11;0.20;;;0.20;;
9842;SDS011;4960;48.736;9.108;2023-03-01T10:20:42;0.10;;;0.10;;
9842;SDS011;4960;48.736;9.108;2023-03-01T10:23:12;0.10;;;0.10;;
9842;SDS011;4960;48.736;9.108;2023-03-01T10:25:43;0.10;;;0.10;;
9842;SDS011;4960;48.736;9.108;2023-03-01T10:28:14;0.10;;;0.10;;
9842;SDS011;4960;48.736;9.108;2023-03-01T10:30:43;0.10;;;0.10;;
9842;SDS011;4960;48.736;9.108;2023-03-01T10:33:13;0.10;;;0.10;;
9842;SDS011;4960;48.736;9.108;2023-03-01T10:35:42;0.10;;;0.10;;
9842;SDS011;4960;48.736;9.108;2023-03-01T10:38:09;0.10;;;0.10;;
9842;SDS011;4960;48.736;9.108;2023-03-01T10:40:49;0.10;;;0.10;;
9842;SDS011;4960;48.736;9.108;2023-03-01T10:43:16;0.10;;;0.10;;
9842;SDS011;4960;48.736;9.108;2023-03-01T10:45:44;0.10;;;0.10;;
9842;SDS011;4960;48.736;9.108;2023-03-01T10:48:13;0.10;;;0.10;;
9842;SDS011;4960;48.736;9.108;2023-03-01T10:50:41;0.20;;;0.20;;
9842;SDS011;4960;48.736;9.108;2023-03-01T10:53:19;0.20;;;0.20;;
9842;SDS011;4960;48.736;9.108;2023-03-01T10:55:48;0.10;;;0.10;;
9842;SDS011;4960;48.736;9.108;2023-03-01T10:58:23;0.10;;;0.10;;
9842;SDS011;4960;48.736;9.108;2023-03-01T11:00:51;0.10;;;0.10;;
9842;SDS011;4960;48.736;9.108;2023-03-01T11:03:19;0.10;;;0.10;;
9842;SDS011;4960;48.736;9.108;2023-03-01T11:05:53;0.20;;;0.20;;
9842;SDS011;4960;48.736;9.108;2023-03-01T11:08:29;0.10;;;0.10;;
9842;SDS011;4960;48.736;9.108;2023-03-01T11:11:05;0.13;;;0.13;;
9842;SDS011;4960;48.736;9.108;2023-03-01T11:13:33;0.17;;;0.17;;
9842;SDS011;4960;48.736;9.108;2023-03-01T11:16:01;0.10;;;0.10;;
9842;SDS011;4960;48.736;9.108;2023-03-01T11:18:29;0.10;;;0.10;;
9842;SDS011;4960;48.736;9.108;2023-03-01T11:20:56;0.10;;;0.10;;
9842;SDS011;4960;48.736;9.108;2023-03-01T11:23:25;0.10;;;0.10;;
9842;SDS011;4960;48.736;9.108;2023-03-01T11:25:55;0.10;;;0.10;;
9842;SDS011;4960;48.736;9.108;2023-03-01T11:28:24;0.10;;;0.10;;
9842;SDS011;4960;48.736;9.108;2023-03-01T11:30:53;0.20;;;0.20;;
9842;SDS011;4960;48.736;9.108;2023-03-01T11:33:24;0.10;;;0.10;;
9842;SDS011;4960;48.736;9.108;2023-03-01T11:36:00;0.10;;;0.10;;
9842;SDS011;4960;48.736;9.108;2023-03-01T11:38:29;0.10;;;0.10;;
9842;SDS011;4960;48.736;9.108;2023-03-01T11:40:59;0.10;;;0.10;;
9842;SDS011;4960;48.736;9.108;2023-03-01T11:43:32;0.20;;;0.20;;
9842;SDS011;4960;48.736;9.108;2023-03-01T11:48:44;0.20;;;0.20;;
9842;SDS011;4960;48.736;9.108;2023-03-01T11:51:18;0.20;;;0.20;;
9842;SDS011;4960;48.736;9.108;2023-03-01T11:53:51;0.10;;;0.10;;
9842;SDS011;4960;48.736;9.108;2023-03-01T11:56:24;0.23;;;0.23;;
9842;SDS011;4960;48.736;9.108;2023-03-01T11:59:02;0.10;;;0.10;;
9842;SDS011;4960;48.736;9.108;2023-03-01T12:01:32;0.10;;;0.10;;
9842;SDS011;4960;48.736;9.108;2023-03-01T12:04:10;0.10;;;0.10;;
9842;SDS011;4960;48.736;9.108;2023-03-01T12:06:46;0.10;;;0.10;;
9842;SDS011;4960;48.736;9.108;2023-03-01T12:09:21;0.10;;;0.10;;
9842;SDS011;4960;48.736;9.108;2023-03-01T12:12:07;0.10;;;0.10;;
9842;SDS011;4960;48.736;9.108;2023-03-01T12:14:44;0.10;;;0.10;;
9842;SDS011;4960;48.736;9.108;2023-03-01T12:20:02;0.10;;;0.10;;
9842;SDS011;4960;48.736;9.108;2023-03-01T12:22:35;0.20;;;0.20;;
9842;SDS011;4960;48.736;9.108;2023-03-01T12:25:14;0.10;;;0.10;;
9842;SDS011;4960;48.736;9.108;2023-03-01T12:27:47;0.20;;;0.20;;
9842;SDS011;4960;48.736;9.108;2023-03-01T12:30:23;0.20;;;0.20;;
9842;SDS011;4960;48.736;9.108;2023-03-01T12:32:55;0.20;;;0.20;;
9842;SDS011;4960;48.736;9.108;2023-03-01T12:35:29;0.10;;;0.10;;
9842;SDS011;4960;48.736;9.108;2023-03-01T12:38:05;0.10;;;0.10;;
9842;SDS011;4960;48.736;9.108;2023-03-01T12:40:42;0.10;;;0.10;;
9842;SDS011;4960;48.736;9.108;2023-03-01T12:43:19;0.10;;;0.10;;
9842;SDS011;4960;48.736;9.108;2023-03-01T12:45:57;0.10;;;0.10;;
9842;SDS011;4960;48.736;9.108;2023-03-01T12:48:31;0.20;;;0.20;;
9842;SDS011;4960;48.736;9.108;2023-03-01T12:51:04;0.20;;;0.20;;
9842;SDS011;4960;48.736;9.108;2023-03-01T12:53:34;0.10;;;0.10;;
9842;SDS011;4960;48.736;9.108;2023-03-01T12:56:04;0.10;;;0.10;;
9842;SDS011;4960;48.736;9.108;2023-03-01T12:58:33;0.10;;;0.10;;
9842;SDS011;4960;48.736;9.108;2023-03-01T13:01:05;0.20;;;0.20;;
9842;SDS011;4960;48.736;9.108;2023-03-01T13:03:45;0.10;;;0.10;;
9842;SDS011;4960;48.736;9.108;2023-03-01T13:06:15;0.20;;;0.20;;
9842;SDS011;4960;48.736;9.108;2023-03-01T13:08:47;0.20;;;0.20;;
9842;SDS011;4960;48.736;9.108;2023-03-01T13:11:17;0.20;;;0.20;;
9842;SDS011;4960;48.736;9.108;2023-03-01T13:13:45;0.20;;;0.20;;
9842;SDS011;4960;48.736;9.108;2023-03-01T13:16:22;0.20;;;0.20;;
9842;SDS011;4960;48.736;9.108;2023-03-01T13:19:06;0.20;;;0.20;;
9842;SDS011;4960;48.736;9.108;2023-03-01T13:21:33;0.20;;;0.20;;
9842;SDS011;4960;48.736;9.108;2023-03-01T13:24:00;0.13;;;0.13;;
9842;SDS011;4960;48.736;9.108;2023-03-01T13:26:27;0.10;;;0.10;;
9842;SDS011;4960;48.736;9.108;2023-03-01T13:28:55;0.10;;;0.10;;
9842;SDS011;4960;48.736;9.108;2023-03-01T13:34:19;0.20;;;0.20;;
9842;SDS011;4960;48.736;9.108;2023-03-01T13:37:08;0.20;;;0.20;;
9842;SDS011;4960;48.736;9.108;2023-03-01T13:39:38;0.10;;;0.10;;
9842;SDS011;4960;48.736;9.108;2023-03-01T13:44:48;0.20;;;0.20;;
9842;SDS011;4960;48.736;9.108;2023-03-01T13:47:16;0.10;;;0.10;;
9842;SDS011;4960;48.736;9.108;2023-03-01T13:49:47;0.10;;;0.10;;
9842;SDS011;4960;48.736;9.108;2023-03-01T13:52:23;0.10;;;0.10;;
9842;SDS011;4960;48.736;9.108;2023-03-01T13:54:54;0.00;;;0.00;;
9842;SDS011;4960;48.736;9.108;2023-03-01T13:57:23;0.00;;;0.00;;
9842;SDS011;4960;48.736;9.108;2023-03-01T13:59:51;0.00;;;0.00;;
9842;SDS011;4960;48.736;9.108;2023-03-01T14:02:19;0.00;;;0.00;;
9842;SDS011;4960;48.736;9.108;2023-03-01T14:04:57;0.00;;;0.00;;
9842;SDS011;4960;48.736;9.108;2023-03-01T14:07:24;0.00;;;0.00;;
9842;SDS011;4960;48.736;9.108;2023-03-01T14:09:54;0.00;;;0.00;;
9842;SDS011;4960;48.736;9.108;2023-03-01T14:12:26;0.00;;;0.00;;
9842;SDS011;4960;48.736;9.108;2023-03-01T14:14:55;0.00;;;0.00;;
9842;SDS011;4960;48.736;9.108;2023-03-01T14:20:16;0.00;;;0.00;;
9842;SDS011;4960;48.736;9.108;2023-03-01T14:22:44;0.00;;;0.00;;
9842;SDS011;4960;48.736;9.108;2023-03-01T14:25:19;0.10;;;0.10;;
9842;SDS011;4960;48.736;9.108;2023-03-01T14:27:50;0.10;;;0.10;;
9842;SDS011;4960;48.736;9.108;2023-03-01T14:30:19;0.10;;;0.10;;
9842;SDS011;4960;48.736;9.108;2023-03-01T14:32:51;0.10;;;0.10;;
9842;SDS011;4960;48.736;9.108;2023-03-01T14:35:21;0.20;;;0.20;;
9842;SDS011;4960;48.736;9.108;2023-03-01T14:37:48;0.10;;;0.10;;
9842;SDS011;4960;48.736;9.108;2023-03-01T14:40:20;0.10;;;0.10;;
9842;SDS011;4960;48.736;9.108;2023-03-01T14:42:48;0.10;;;0.10;;
9842;SDS011;4960;48.736;9.108;2023-03-01T14:45:15;0.13;;;0.13;;
9842;SDS011;4960;48.736;9.108;2023-03-01T14:47:43;0.10;;;0.10;;
9842;SDS011;4960;48.736;9.108;2023-03-01T14:50:15;0.20;;;0.20;;
9842;SDS011;4960;48.736;9.108;2023-03-01T14:52:46;0.10;;;0.10;;
9842;SDS011;4960;48.736;9.108;2023-03-01T14:55:15;0.10;;;0.10;;
9842;SDS011;4960;48.736;9.108;2023-03-01T14:57:43;0.20;;;0.20;;
9842;SDS011;4960;48.736;9.108;2023-03-01T15:00:13;0.17;;;0.17;;
9842;SDS011;4960;48.736;9.108;2023-03-01T15:02:42;0.10;;;0.10;;
9842;SDS011;4960;48.736;9.108;2023-03-01T15:05:10;0.20;;;0.20;;
9842;SDS011;4960;48.736;9.108;2023-03-01T15:07:38;0.20;;;0.20;;
9842;SDS011;4960;48.736;9.108;2023-03-01T15:10:17;0.20;;;0.20;;
9842;SDS011;4960;48.736;9.108;2023-03-01T15:12:46;0.10;;;0.10;;
9842;SDS011;4960;48.736;9.108;2023-03-01T15:15:21;0.30;;;0.30;;
9842;SDS011;4960;48.736;9.108;2023-03-01T15:17:50;0.20;;;0.20;;
9842;SDS011;4960;48.736;9.108;2023-03-01T15:20:20;0.20;;;0.20;;
9842;SDS011;4960;48.736;9.108;2023-03-01T15:22:50;0.20;;;0.20;;
9842;SDS011;4960;48.736;9.108;2023-03-01T15:25:19;0.20;;;0.20;;
9842;SDS011;4960;48.736;9.108;2023-03-01T15:27:48;0.20;;;0.20;;
9842;SDS011;4960;48.736;9.108;2023-03-01T15:30:17;0.17;;;0.17;;
9842;SDS011;4960;48.736;9.108;2023-03-01T15:32:44;0.20;;;0.20;;
9842;SDS011;4960;48.736;9.108;2023-03-01T15:38:03;0.20;;;0.20;;
9842;SDS011;4960;48.736;9.108;2023-03-01T15:40:31;0.20;;;0.20;;
9842;SDS011;4960;48.736;9.108;2023-03-01T15:43:02;0.20;;;0.20;;
9842;SDS011;4960;48.736;9.108;2023-03-01T15:45:30;0.20;;;0.20;;
9842;SDS011;4960;48.736;9.108;2023-03-01T15:48:00;0.10;;;0.10;;
9842;SDS011;4960;48.736;9.108;2023-03-01T15:50:29;0.10;;;0.10;;